createdAt,value
2019-05-23T00:00:44.996Z,15.21
2019-05-23T00:03:37.101Z,15.19
2019-05-23T00:06:25.941Z,15.14
2019-05-23T00:09:14.227Z,15.07
2019-05-23T00:11:58.195Z,15.06
2019-05-23T00:14:39.965Z,15.09
2019-05-23T00:17:14.288Z,15.12
2019-05-23T00:19:44.363Z,15.10
2019-05-23T00:22:14.887Z,15.04
2019-05-23T00:24:45.954Z,15.00
2019-05-23T00:27:17.301Z,14.93
2019-05-23T00:29:49.016Z,14.93
2019-05-23T00:32:29.942Z,14.89
2019-05-23T00:34:59.943Z,14.78
2019-05-23T00:37:31.215Z,14.58
2019-05-23T00:40:01.068Z,14.42
2019-05-23T00:42:31.605Z,14.29
2019-05-23T00:45:02.397Z,14.29
2019-05-23T00:47:32.994Z,14.15
2019-05-23T00:50:03.613Z,14.20
2019-05-23T00:52:33.477Z,14.20
2019-05-23T00:55:04.946Z,14.33
2019-05-23T00:57:34.453Z,14.43
2019-05-23T01:00:04.697Z,14.23
2019-05-23T01:02:35.270Z,14.25
2019-05-23T01:05:06.657Z,14.23
2019-05-23T01:07:37.025Z,14.28
2019-05-23T01:10:07.243Z,14.32
2019-05-23T01:12:37.460Z,14.36
2019-05-23T01:15:08.405Z,14.38
2019-05-23T01:17:39.598Z,14.42
2019-05-23T01:20:12.151Z,14.42
2019-05-23T01:22:41.758Z,14.49
2019-05-23T01:25:12.576Z,14.42
2019-05-23T01:27:43.172Z,14.34
2019-05-23T01:30:16.419Z,14.38
2019-05-23T01:32:47.817Z,14.37
2019-05-23T01:35:22.251Z,14.38
2019-05-23T01:37:52.589Z,14.21
2019-05-23T01:40:22.374Z,14.21
2019-05-23T01:42:52.261Z,14.17
2019-05-23T01:45:22.818Z,14.14
2019-05-23T01:47:53.269Z,14.23
2019-05-23T01:50:25.989Z,14.23
2019-05-23T01:52:55.642Z,14.23
2019-05-23T01:55:25.165Z,14.17
2019-05-23T01:57:54.651Z,14.03
2019-05-23T02:00:26.755Z,13.95
2019-05-23T02:02:56.513Z,14.03
2019-05-23T02:05:26.098Z,13.96
2019-05-23T02:07:56.641Z,13.91
2019-05-23T02:10:26.122Z,13.93
2019-05-23T02:12:55.705Z,13.91
2019-05-23T02:15:25.969Z,13.93
2019-05-23T02:17:56.990Z,13.93
2019-05-23T02:20:27.307Z,13.89
2019-05-23T02:22:58.677Z,13.82
2019-05-23T02:25:29.090Z,13.61
2019-05-23T02:27:59.466Z,13.52
2019-05-23T02:30:36.241Z,13.53
2019-05-23T02:33:00.232Z,13.54
2019-05-23T02:35:29.710Z,13.53
2019-05-23T02:38:21.790Z,13.54
2019-05-23T02:41:00.233Z,13.52
2019-05-23T02:43:32.222Z,13.49
2019-05-23T02:46:03.941Z,13.52
2019-05-23T02:48:39.237Z,13.50
2019-05-23T02:51:13.232Z,13.47
2019-05-23T02:53:44.187Z,13.48
2019-05-23T02:56:14.301Z,13.46
2019-05-23T02:59:03.019Z,13.47
2019-05-23T03:02:08.150Z,13.46
2019-05-23T03:04:38.501Z,13.42
2019-05-23T03:07:09.639Z,13.43
2019-05-23T03:09:39.915Z,13.39
2019-05-23T03:12:11.253Z,13.32
2019-05-23T03:14:42.412Z,13.28
2019-05-23T03:17:16.428Z,13.23
2019-05-23T03:19:51.703Z,13.18
2019-05-23T03:22:30.941Z,13.20
2019-05-23T03:25:03.114Z,13.15
2019-05-23T03:27:36.759Z,13.19
2019-05-23T03:30:08.970Z,13.12
2019-05-23T03:32:49.821Z,13.14
2019-05-23T03:35:47.656Z,13.08
2019-05-23T03:38:17.431Z,13.01
2019-05-23T03:40:47.305Z,13.01
2019-05-23T03:43:17.454Z,13.02
2019-05-23T03:45:53.313Z,13.01
2019-05-23T03:48:23.992Z,13.04
2019-05-23T03:50:55.320Z,13.01
2019-05-23T03:53:27.633Z,13.04
2019-05-23T03:55:57.559Z,13.13
2019-05-23T03:58:27.227Z,13.14
2019-05-23T04:00:57.271Z,13.16
2019-05-23T04:03:29.531Z,13.16
2019-05-23T04:05:59.564Z,13.15
2019-05-23T04:08:29.687Z,13.14
2019-05-23T04:10:59.234Z,13.16
2019-05-23T04:13:29.087Z,13.20
2019-05-23T04:15:58.699Z,13.24
2019-05-23T04:18:28.279Z,13.26
2019-05-23T04:20:57.798Z,13.25
2019-05-23T04:23:27.286Z,13.26
2019-05-23T04:25:56.797Z,13.23
2019-05-23T04:28:26.988Z,13.23
2019-05-23T04:30:56.827Z,13.30
2019-05-23T04:33:26.676Z,13.41
2019-05-23T04:35:56.264Z,13.44
2019-05-23T04:38:26.147Z,13.53
2019-05-23T04:40:55.988Z,13.60
2019-05-23T04:43:25.865Z,13.66
2019-05-23T04:45:55.848Z,13.73
2019-05-23T04:48:25.337Z,13.82
2019-05-23T04:50:59.755Z,13.96
2019-05-23T04:53:27.059Z,14.04
2019-05-23T04:55:56.626Z,14.10
2019-05-23T04:58:26.404Z,14.13
2019-05-23T05:00:55.980Z,14.17
2019-05-23T05:03:25.769Z,14.18
2019-05-23T05:05:55.292Z,14.18
2019-05-23T05:08:25.582Z,14.24
2019-05-23T05:10:55.085Z,14.23
2019-05-23T05:13:24.834Z,14.25
2019-05-23T05:15:55.690Z,14.34
2019-05-23T05:18:25.393Z,14.36
2019-05-23T05:20:54.894Z,14.46
2019-05-23T05:23:24.477Z,14.55
2019-05-23T05:25:54.049Z,14.66
2019-05-23T05:28:23.592Z,14.73
2019-05-23T05:30:53.472Z,14.88
2019-05-23T05:33:23.003Z,14.98
2019-05-23T05:35:53.385Z,15.08
2019-05-23T05:38:23.766Z,15.20
2019-05-23T05:40:53.325Z,15.29
2019-05-23T05:43:23.589Z,15.32
2019-05-23T05:45:53.170Z,15.46
2019-05-23T05:48:22.705Z,15.55
2019-05-23T05:50:52.944Z,15.65
2019-05-23T05:53:22.520Z,15.81
2019-05-23T05:55:52.117Z,15.93
2019-05-23T05:58:21.557Z,15.97
2019-05-23T06:01:00.939Z,16.14
2019-05-23T06:03:30.446Z,16.26
2019-05-23T06:06:16.498Z,16.49
2019-05-23T06:08:47.321Z,16.62
2019-05-23T06:11:16.831Z,16.85
2019-05-23T06:13:46.659Z,17.01
2019-05-23T06:16:16.260Z,17.23
2019-05-23T06:18:46.631Z,17.46
2019-05-23T06:21:18.981Z,17.47
2019-05-23T06:23:48.515Z,17.80
2019-05-23T06:26:18.019Z,17.99
2019-05-23T06:28:47.617Z,18.15
2019-05-23T06:31:17.730Z,18.32
2019-05-23T06:33:47.449Z,18.44
2019-05-23T06:36:18.366Z,18.49
2019-05-23T06:38:48.167Z,18.47
2019-05-23T06:41:18.425Z,18.58
2019-05-23T06:43:47.954Z,18.57
2019-05-23T06:46:17.510Z,18.58
2019-05-23T06:48:47.378Z,18.63
2019-05-23T06:51:18.327Z,18.69
2019-05-23T06:53:47.945Z,18.44
2019-05-23T06:56:17.593Z,18.84
2019-05-23T06:58:47.115Z,18.90
2019-05-23T07:01:16.705Z,18.95
2019-05-23T07:03:46.219Z,19.02
2019-05-23T07:06:17.990Z,19.01
2019-05-23T07:08:47.509Z,19.04
2019-05-23T07:11:17.763Z,19.04
2019-05-23T07:13:47.554Z,18.96
2019-05-23T07:16:17.137Z,19.03
2019-05-23T07:18:46.643Z,19.10
2019-05-23T07:21:16.530Z,19.11
2019-05-23T07:23:46.160Z,18.91
2019-05-23T07:26:15.789Z,19.29
2019-05-23T07:28:45.595Z,19.44
2019-05-23T07:31:16.758Z,19.57
2019-05-23T07:34:00.905Z,19.64
2019-05-23T07:36:17.681Z,19.77
2019-05-23T07:38:47.252Z,19.83
2019-05-23T07:41:17.449Z,19.85
2019-05-23T07:43:47.262Z,19.95
2019-05-23T07:46:16.852Z,19.95
2019-05-23T07:48:46.465Z,20.00
2019-05-23T07:51:16.031Z,20.04
2019-05-23T07:54:07.936Z,20.04
2019-05-23T07:56:37.732Z,20.05
2019-05-23T07:59:07.850Z,20.08
2019-05-23T08:01:39.800Z,20.23
2019-05-23T08:04:21.438Z,20.33
2019-05-23T08:06:41.174Z,20.40
2019-05-23T08:09:11.342Z,20.49
2019-05-23T08:11:44.420Z,20.54
2019-05-23T08:14:13.932Z,20.64
2019-05-23T08:16:44.561Z,20.71
2019-05-23T08:19:19.176Z,20.76
2019-05-23T08:21:46.184Z,20.88
2019-05-23T08:24:15.688Z,20.89
2019-05-23T08:26:46.441Z,20.79
2019-05-23T08:29:26.180Z,20.92
2019-05-23T08:31:47.132Z,21.06
2019-05-23T08:34:19.422Z,21.19
2019-05-23T08:36:51.767Z,21.21
2019-05-23T08:39:22.892Z,21.28
2019-05-23T08:41:52.536Z,21.24
2019-05-23T08:44:23.826Z,21.37
2019-05-23T08:46:57.132Z,21.38
2019-05-23T08:49:26.787Z,21.45
2019-05-23T08:51:56.635Z,21.55
2019-05-23T08:54:26.153Z,21.63
2019-05-23T08:56:56.357Z,21.70
2019-05-23T08:59:25.943Z,21.70
2019-05-23T09:01:55.777Z,21.84
2019-05-23T09:04:25.265Z,21.94
2019-05-23T09:06:55.364Z,21.98
2019-05-23T09:09:29.961Z,22.00
2019-05-23T09:11:58.796Z,22.06
2019-05-23T09:14:29.055Z,22.04
2019-05-23T09:16:58.889Z,22.07
2019-05-23T09:19:28.421Z,21.83
2019-05-23T09:21:58.387Z,22.01
2019-05-23T09:24:27.989Z,22.07
2019-05-23T09:26:57.929Z,22.09
2019-05-23T09:29:27.617Z,22.04
2019-05-23T09:31:57.151Z,22.03
2019-05-23T09:34:26.726Z,22.09
2019-05-23T09:37:00.291Z,22.20
2019-05-23T09:39:30.331Z,22.25
2019-05-23T09:41:59.911Z,22.12
2019-05-23T09:44:29.453Z,22.28
2019-05-23T09:46:59.063Z,22.45
2019-05-23T09:49:28.884Z,22.52
2019-05-23T09:52:01.391Z,22.50
2019-05-23T09:54:31.033Z,22.62
2019-05-23T09:57:00.699Z,22.53
2019-05-23T09:59:30.288Z,22.63
2019-05-23T10:02:01.321Z,22.75
2019-05-23T10:04:30.866Z,22.83
2019-05-23T10:07:00.396Z,22.87
2019-05-23T10:09:29.887Z,22.84
2019-05-23T10:11:59.493Z,22.74
2019-05-23T10:14:31.923Z,22.85
2019-05-23T10:17:01.453Z,22.91
2019-05-23T10:19:30.947Z,22.90
2019-05-23T10:22:01.553Z,22.94
2019-05-23T10:24:31.136Z,22.92
2019-05-23T10:27:00.641Z,22.93
2019-05-23T10:29:30.155Z,22.96
2019-05-23T10:31:59.666Z,23.00
2019-05-23T10:34:29.165Z,23.14
2019-05-23T10:36:58.683Z,23.20
2019-05-23T10:39:28.200Z,23.28
2019-05-23T10:41:58.500Z,23.31
2019-05-23T10:44:27.976Z,23.22
2019-05-23T10:46:57.492Z,23.33
2019-05-23T10:49:27.058Z,23.34
2019-05-23T10:51:56.656Z,23.48
2019-05-23T10:54:26.228Z,23.44
2019-05-23T10:56:55.750Z,23.60
2019-05-23T10:59:26.212Z,23.59
2019-05-23T11:01:56.791Z,23.59
2019-05-23T11:04:27.442Z,23.51
2019-05-23T11:06:57.184Z,23.68
2019-05-23T11:09:37.151Z,23.63
2019-05-23T11:11:58.074Z,23.72
2019-05-23T11:14:27.648Z,23.60
2019-05-23T11:16:57.163Z,23.64
2019-05-23T11:19:26.687Z,23.63
2019-05-23T11:21:56.186Z,23.81
2019-05-23T11:24:25.717Z,23.87
2019-05-23T11:26:55.322Z,24.02
2019-05-23T11:29:27.230Z,24.11
2019-05-23T11:31:56.605Z,24.13
2019-05-23T11:34:26.984Z,24.05
2019-05-23T11:36:56.518Z,24.11
2019-05-23T11:39:27.765Z,24.07
2019-05-23T11:41:57.389Z,24.19
2019-05-23T11:44:26.899Z,24.14
2019-05-23T11:46:56.805Z,24.11
2019-05-23T11:49:26.334Z,24.19
2019-05-23T11:51:56.009Z,24.23
2019-05-23T11:54:25.881Z,24.30
2019-05-23T11:56:55.829Z,24.34
2019-05-23T11:59:25.346Z,24.45
2019-05-23T12:02:19.963Z,24.54
2019-05-23T12:04:50.957Z,24.47
2019-05-23T12:07:26.778Z,24.46
2019-05-23T12:09:56.280Z,24.53
2019-05-23T12:12:26.055Z,24.44
2019-05-23T12:14:56.604Z,24.48
2019-05-23T12:17:28.955Z,24.47
2019-05-23T12:19:58.503Z,24.67
2019-05-23T12:22:28.274Z,25.00
2019-05-23T12:24:58.056Z,25.04
2019-05-23T12:27:27.803Z,25.02
2019-05-23T12:29:57.405Z,25.11
2019-05-23T12:32:26.980Z,25.21
2019-05-23T12:35:09.468Z,25.37
2019-05-23T12:37:27.842Z,25.34
2019-05-23T12:39:57.900Z,25.39
2019-05-23T12:42:27.805Z,25.22
2019-05-23T12:44:57.414Z,25.36
2019-05-23T12:47:40.881Z,25.45
2019-05-23T12:50:14.138Z,25.48
2019-05-23T12:52:43.623Z,25.34
2019-05-23T12:55:13.290Z,25.36
2019-05-23T12:57:42.808Z,25.41
2019-05-23T13:00:26.265Z,25.44
2019-05-23T13:02:58.686Z,25.40
2019-05-23T13:05:28.271Z,25.40
2019-05-23T13:07:57.775Z,25.65
2019-05-23T13:10:27.462Z,25.80
2019-05-23T13:12:57.108Z,25.83
2019-05-23T13:15:27.022Z,25.75
2019-05-23T13:17:56.552Z,25.67
2019-05-23T13:20:26.278Z,25.48
2019-05-23T13:22:55.786Z,25.78
2019-05-23T13:25:27.045Z,25.77
2019-05-23T13:27:58.794Z,25.70
2019-05-23T13:30:28.576Z,25.62
2019-05-23T13:32:58.108Z,25.80
2019-05-23T13:35:28.768Z,25.92
2019-05-23T13:37:58.322Z,25.81
2019-05-23T13:40:27.940Z,25.81
2019-05-23T13:42:58.106Z,25.97
2019-05-23T13:45:27.924Z,25.99
2019-05-23T13:47:57.430Z,26.15
2019-05-23T13:50:28.253Z,26.19
2019-05-23T13:52:58.591Z,26.19
2019-05-23T13:55:28.282Z,26.27
2019-05-23T13:57:57.814Z,26.26
2019-05-23T14:00:28.693Z,26.26
2019-05-23T14:02:58.326Z,26.20
2019-05-23T14:05:27.952Z,26.18
2019-05-23T14:08:11.320Z,26.12
2019-05-23T14:10:29.192Z,26.15
2019-05-23T14:12:58.696Z,26.03
2019-05-23T14:15:33.704Z,26.09
2019-05-23T14:18:03.640Z,26.25
2019-05-23T14:20:33.285Z,26.31
2019-05-23T14:23:09.104Z,26.26
2019-05-23T14:25:38.798Z,26.20
2019-05-23T14:28:09.210Z,25.96
2019-05-23T14:30:52.206Z,25.96
2019-05-23T14:33:29.289Z,25.84
2019-05-23T14:36:00.596Z,25.89
2019-05-23T14:38:32.441Z,26.08
2019-05-23T14:41:02.207Z,26.04
2019-05-23T14:43:31.775Z,26.12
2019-05-23T14:46:04.050Z,26.19
2019-05-23T14:48:51.796Z,26.24
2019-05-23T14:51:30.807Z,26.30
2019-05-23T14:54:10.350Z,26.37
2019-05-23T14:56:39.899Z,26.24
2019-05-23T14:59:09.539Z,26.13
2019-05-23T15:01:39.090Z,26.07
2019-05-23T15:04:08.848Z,25.96
2019-05-23T15:06:38.560Z,25.89
2019-05-23T15:09:08.949Z,25.92
2019-05-23T15:11:38.993Z,26.02
2019-05-23T15:14:08.582Z,26.01
2019-05-23T15:16:38.141Z,25.87
2019-05-23T15:19:07.755Z,25.93
2019-05-23T15:21:37.294Z,25.93
2019-05-23T15:24:07.010Z,26.15
2019-05-23T15:26:36.657Z,26.28
2019-05-23T15:29:06.849Z,26.19
2019-05-23T15:31:36.366Z,26.20
2019-05-23T15:34:05.951Z,26.19
2019-05-23T15:36:35.456Z,26.17
2019-05-23T15:39:10.010Z,26.23
2019-05-23T15:41:39.060Z,26.39
2019-05-23T15:44:24.041Z,26.45
2019-05-23T15:46:39.806Z,26.51
2019-05-23T15:49:10.657Z,26.57
2019-05-23T15:51:46.118Z,26.49
2019-05-23T15:54:34.681Z,26.39
2019-05-23T15:57:12.764Z,26.42
2019-05-23T15:59:49.047Z,26.46
2019-05-23T16:02:29.100Z,26.39
2019-05-23T16:05:00.158Z,26.45
2019-05-23T16:07:30.313Z,26.37
2019-05-23T16:09:59.994Z,26.29
2019-05-23T16:12:29.534Z,26.22
2019-05-23T16:14:59.104Z,26.11
2019-05-23T16:17:29.029Z,25.86
2019-05-23T16:19:59.040Z,25.78
2019-05-23T16:22:28.957Z,25.57
2019-05-23T16:24:58.511Z,25.73
2019-05-23T16:27:28.094Z,25.69
2019-05-23T16:29:57.599Z,25.64
2019-05-23T16:32:27.126Z,25.55
2019-05-23T16:34:56.652Z,25.44
2019-05-23T16:37:26.180Z,25.48
2019-05-23T16:39:55.702Z,25.42
2019-05-23T16:42:25.511Z,25.39
2019-05-23T16:44:55.010Z,25.37
2019-05-23T16:47:25.341Z,25.30
2019-05-23T16:49:55.360Z,25.27
2019-05-23T16:52:24.940Z,25.14
2019-05-23T16:54:56.100Z,25.12
2019-05-23T16:57:36.053Z,25.15
2019-05-23T17:00:24.712Z,25.10
2019-05-23T17:03:17.279Z,25.10
2019-05-23T17:06:11.802Z,25.03
2019-05-23T17:08:58.181Z,25.04
2019-05-23T17:11:37.303Z,24.84
2019-05-23T17:14:25.855Z,24.96
2019-05-23T17:17:13.165Z,24.94
2019-05-23T17:19:53.673Z,24.95
2019-05-23T17:22:57.678Z,24.96
2019-05-23T17:25:46.124Z,24.96
2019-05-23T17:28:21.942Z,24.97
2019-05-23T17:30:54.375Z,25.00
2019-05-23T17:33:24.237Z,25.07
2019-05-23T17:35:53.821Z,24.98
2019-05-23T17:38:23.825Z,24.96
2019-05-23T17:40:53.344Z,24.95
2019-05-23T17:43:23.253Z,24.90
2019-05-23T17:45:53.861Z,24.88
2019-05-23T17:48:23.495Z,24.87
2019-05-23T17:50:52.956Z,24.88
2019-05-23T17:53:22.474Z,24.81
2019-05-23T17:55:52.256Z,24.73
2019-05-23T17:58:22.038Z,24.55
2019-05-23T18:00:51.809Z,24.42
2019-05-23T18:03:21.351Z,24.36
2019-05-23T18:05:50.947Z,24.23
2019-05-23T18:08:20.503Z,24.15
2019-05-23T18:10:50.024Z,24.05
2019-05-23T18:13:20.697Z,23.91
2019-05-23T18:15:50.360Z,23.81
2019-05-23T18:18:20.641Z,23.71
2019-05-23T18:20:50.333Z,23.71
2019-05-23T18:23:20.223Z,23.67
2019-05-23T18:25:50.028Z,23.61
2019-05-23T18:28:20.052Z,23.27
2019-05-23T18:30:56.608Z,23.58
2019-05-23T18:33:28.530Z,23.70
2019-05-23T18:35:58.898Z,23.58
2019-05-23T18:38:28.692Z,23.69
2019-05-23T18:41:04.290Z,24.01
2019-05-23T18:43:30.010Z,24.11
2019-05-23T18:46:03.546Z,24.19
2019-05-23T18:48:33.410Z,24.25
2019-05-23T18:51:02.948Z,24.28
2019-05-23T18:53:32.458Z,24.30
2019-05-23T18:56:02.043Z,24.29
2019-05-23T18:58:31.678Z,24.21
2019-05-23T19:01:13.915Z,24.12
2019-05-23T19:03:43.749Z,24.13
2019-05-23T19:06:13.267Z,24.10
2019-05-23T19:08:43.254Z,24.08
2019-05-23T19:11:20.784Z,24.02
2019-05-23T19:13:44.176Z,23.97
2019-05-23T19:16:13.694Z,23.88
2019-05-23T19:18:43.254Z,23.86
2019-05-23T19:21:15.294Z,23.82
2019-05-23T19:23:44.917Z,23.80
2019-05-23T19:26:15.300Z,23.74
2019-05-23T19:28:45.623Z,23.59
2019-05-23T19:31:16.023Z,23.40
2019-05-23T19:33:46.749Z,23.32
2019-05-23T19:36:16.838Z,23.26
2019-05-23T19:38:47.336Z,23.17
2019-05-23T19:41:16.926Z,23.11
2019-05-23T19:43:48.206Z,23.12
2019-05-23T19:46:18.267Z,22.99
2019-05-23T19:48:48.537Z,22.95
2019-05-23T19:51:18.705Z,22.92
2019-05-23T19:53:48.441Z,22.84
2019-05-23T19:56:18.418Z,22.73
2019-05-23T19:58:48.028Z,22.73
2019-05-23T20:01:18.409Z,22.62
2019-05-23T20:03:48.428Z,22.61
2019-05-23T20:06:18.789Z,22.53
2019-05-23T20:08:48.963Z,22.47
2019-05-23T20:11:18.566Z,22.43
2019-05-23T20:13:48.097Z,22.41
2019-05-23T20:16:17.610Z,22.34
2019-05-23T20:18:47.294Z,22.28
2019-05-23T20:21:17.009Z,22.16
2019-05-23T20:23:46.540Z,22.12
2019-05-23T20:26:16.291Z,22.02
2019-05-23T20:28:45.811Z,21.91
2019-05-23T20:31:15.302Z,21.82
2019-05-23T20:33:44.853Z,21.78
2019-05-23T20:36:14.905Z,21.70
2019-05-23T20:38:44.815Z,21.56
2019-05-23T20:41:14.346Z,21.49
2019-05-23T20:43:43.911Z,21.44
2019-05-23T20:46:13.424Z,21.40
2019-05-23T20:48:42.961Z,21.42
2019-05-23T20:51:12.637Z,21.43
2019-05-23T20:53:42.641Z,21.40
2019-05-23T20:56:12.226Z,21.35
2019-05-23T20:58:41.774Z,21.32
2019-05-23T21:01:18.640Z,21.29
2019-05-23T21:03:48.772Z,21.22
2019-05-23T21:06:18.269Z,21.16
2019-05-23T21:08:47.789Z,21.07
2019-05-23T21:11:17.288Z,21.01
2019-05-23T21:13:46.884Z,20.96
2019-05-23T21:16:16.385Z,20.91
2019-05-23T21:18:49.196Z,20.88
2019-05-23T21:21:18.082Z,20.85
2019-05-23T21:23:47.779Z,20.81
2019-05-23T21:26:17.690Z,20.81
2019-05-23T21:28:47.274Z,20.77
2019-05-23T21:31:22.628Z,20.71
2019-05-23T21:33:52.139Z,20.66
2019-05-23T21:36:21.679Z,20.55
2019-05-23T21:38:51.265Z,20.48
2019-05-23T21:41:20.758Z,20.45
2019-05-23T21:43:51.934Z,20.33
2019-05-23T21:46:21.463Z,20.21
2019-05-23T21:48:50.992Z,20.06
2019-05-23T21:51:20.512Z,20.11
2019-05-23T21:53:50.024Z,20.13
2019-05-23T21:56:19.525Z,20.10
2019-05-23T21:58:49.042Z,20.11
2019-05-23T22:01:37.978Z,20.12
2019-05-23T22:04:38.826Z,20.06
2019-05-23T22:07:09.091Z,20.01
2019-05-23T22:09:39.074Z,19.99
2019-05-23T22:12:12.737Z,20.00
2019-05-23T22:14:42.260Z,19.89
2019-05-23T22:17:11.763Z,19.81
2019-05-23T22:19:41.571Z,19.81
2019-05-23T22:22:11.298Z,19.69
2019-05-23T22:24:40.819Z,19.67
2019-05-23T22:27:11.244Z,19.60
2019-05-23T22:29:40.748Z,19.54
2019-05-23T22:32:11.888Z,19.54
2019-05-23T22:34:49.379Z,19.45
2019-05-23T22:37:24.530Z,19.45
2019-05-23T22:39:54.101Z,19.21
2019-05-23T22:42:24.977Z,18.99
2019-05-23T22:44:54.489Z,18.76
2019-05-23T22:47:25.004Z,18.73
2019-05-23T22:49:54.610Z,18.70
2019-05-23T22:52:24.192Z,18.75
2019-05-23T22:54:53.717Z,18.92
2019-05-23T22:57:23.228Z,19.03
2019-05-23T22:59:52.767Z,19.09
2019-05-23T23:02:22.268Z,19.13
2019-05-23T23:04:51.775Z,19.09
2019-05-23T23:07:21.382Z,19.08
2019-05-23T23:09:51.067Z,19.13
2019-05-23T23:12:20.571Z,19.12
2019-05-23T23:14:50.250Z,19.07
2019-05-23T23:17:20.412Z,19.07
2019-05-23T23:19:49.910Z,19.03
2019-05-23T23:22:19.477Z,19.03
2019-05-23T23:24:48.933Z,18.91
2019-05-23T23:27:18.471Z,18.87
2019-05-23T23:29:48.000Z,18.75
2019-05-23T23:32:17.530Z,18.78
2019-05-23T23:34:47.046Z,18.78
2019-05-23T23:37:16.561Z,18.80
2019-05-23T23:39:46.122Z,18.87
2019-05-23T23:42:15.609Z,18.88
2019-05-23T23:44:44.275Z,18.91
2019-05-23T23:47:31.659Z,18.90
2019-05-23T23:50:19.258Z,18.79
2019-05-23T23:53:06.609Z,18.63
2019-05-23T23:55:53.921Z,18.46
2019-05-23T23:58:23.545Z,18.45
